createdAt,value
2023-02-16T00:21:52.887Z,16.6
2023-02-16T00:51:54.921Z,16.9
2023-02-16T01:21:55.295Z,17.6
2023-02-16T01:51:57.019Z,18.5
2023-02-16T02:22:18.184Z,18.7
2023-02-16T02:51:54.467Z,19.2
2023-02-16T03:22:06.641Z,19.5
2023-02-16T03:51:54.536Z,20.4
2023-02-16T04:21:56.256Z,21
2023-02-16T04:51:55.588Z,21.1
2023-02-16T05:21:56.229Z,21.3
2023-02-16T05:51:59.479Z,20.9
2023-02-16T06:21:57.749Z,21.8
2023-02-16T06:51:58.165Z,21.9
2023-02-16T07:21:58.874Z,21.5
2023-02-16T07:51:59.279Z,22
2023-02-16T08:21:59.742Z,21.5
2023-02-16T08:52:01.808Z,20.8
2023-02-16T09:22:00.709Z,20.9
2023-02-16T09:52:04.600Z,21.2
2023-02-16T10:22:03.940Z,22.3
2023-02-16T10:52:03.064Z,23.4
2023-02-16T11:22:02.888Z,23.5
2023-02-16T11:52:04.058Z,22
2023-02-16T12:22:08.383Z,20.2
2023-02-16T12:52:08.357Z,17.8
2023-02-16T13:22:20.639Z,17.1
2023-02-16T13:52:08.544Z,15.5
2023-02-16T14:22:17.783Z,12.3
2023-02-16T14:52:22.479Z,13.5
2023-02-16T15:22:23.230Z,16.4
2023-02-16T15:52:16.747Z,16.9
2023-02-16T16:22:29.888Z,15.5
2023-02-16T16:52:15.763Z,13.3
2023-02-16T17:22:20.678Z,11
2023-02-16T17:52:20.775Z,6.9
2023-02-16T18:22:17.901Z,3.6
2023-02-16T18:52:21.742Z,4.3
2023-02-16T19:22:22.365Z,5.5
2023-02-16T19:52:24.325Z,6
2023-02-16T20:22:24.712Z,5.6
2023-02-16T20:52:23.216Z,6.3
2023-02-16T21:22:24.528Z,6.5
2023-02-16T21:52:24.955Z,6.9
2023-02-16T22:22:25.901Z,5.8
2023-02-16T22:52:26.877Z,5.7
2023-02-16T23:22:27.834Z,4.9
2023-02-16T23:52:28.795Z,5.7
